Time;durP1;ratioP1;P1;durP2;ratioP2;P2;SDS_P1;SDS_P2;PMS_P1;PMS_P2;Temp;Humidity;BMP_temperature;BMP_pressure;BME280_temperature;BME280_humidity;BME280_pressure;Samples;Min_cycle;Max_cycle;Signal;HPM_P1;HPM_P2
2022/04/06 00:00:57;;;;;;;49.50;13.13;;;;;;;5.20;82.81;93317.50;5010860;28;20048;-52
2022/04/06 00:03:23;;;;;;;29.20;8.73;;;;;;;5.09;83.72;93311.31;5011446;28;20317;-50
2022/04/06 00:05:51;;;;;;;14.05;5.22;;;;;;;5.15;83.96;93318.69;4993786;28;20052;-46
2022/04/06 00:08:18;;;;;;;17.55;5.65;;;;;;;5.00;84.90;93317.19;5028835;28;20051;-48
2022/04/06 00:10:44;;;;;;;22.30;7.45;;;;;;;4.92;85.40;93313.72;5030950;28;20494;-49
2022/04/06 00:13:11;;;;;;;14.07;4.50;;;;;;;4.88;86.01;93307.50;5030795;28;20049;-52
2022/04/06 00:15:38;;;;;;;7.57;3.42;;;;;;;4.92;86.97;93310.22;5030673;28;20049;-52
2022/04/06 00:18:05;;;;;;;7.15;3.20;;;;;;;5.06;85.83;93304.72;5029333;28;20413;-55
2022/04/06 00:20:31;;;;;;;4.95;2.35;;;;;;;5.05;86.66;93305.91;5030553;28;20091;-47
2022/04/06 00:22:58;;;;;;;4.85;2.50;;;;;;;5.13;86.42;93306.63;5029220;28;20042;-50
2022/04/06 00:25:25;;;;;;;7.10;3.10;;;;;;;5.28;85.59;93297.25;5030835;28;20045;-51
2022/04/06 00:27:52;;;;;;;4.95;2.75;;;;;;;5.35;85.27;93301.88;5030389;28;20557;-52
2022/04/06 00:30:19;;;;;;;9.55;4.03;;;;;;;5.28;85.75;93297.25;5030847;28;20041;-50
2022/04/06 00:32:45;;;;;;;5.32;2.80;;;;;;;5.17;86.40;93301.94;5030423;28;20049;-53
2022/04/06 00:38:09;;;;;;;16.83;8.73;;;;;;;5.21;86.42;93286.38;5029172;28;20060;-49
2022/04/06 00:40:36;;;;;;;8.27;4.43;;;;;;;5.37;86.12;93288.63;5029599;28;20050;-48
2022/04/06 00:43:12;;;;;;;5.35;3.00;;;;;;;5.44;84.81;93277.72;5030058;28;20104;-55
2022/04/06 00:45:40;;;;;;;5.10;2.60;;;;;;;5.46;85.01;93282.78;5030256;28;20049;-51
2022/04/06 00:48:09;;;;;;;4.95;2.50;;;;;;;5.54;85.09;93268.72;5028604;28;20061;-49
2022/04/06 00:50:37;;;;;;;6.63;3.70;;;;;;;5.59;85.37;93272.94;5028947;28;20126;-52
2022/04/06 00:53:04;;;;;;;6.03;3.35;;;;;;;5.66;86.33;93281.09;5030037;28;20051;-50
2022/04/06 00:55:36;;;;;;;6.00;3.67;;;;;;;5.87;85.67;93274.69;5030067;28;20057;-50
2022/04/06 00:58:04;;;;;;;4.25;2.55;;;;;;;5.84;84.94;93283.69;5029749;28;20052;-52
2022/04/06 01:00:32;;;;;;;3.97;2.15;;;;;;;5.61;85.88;93281.50;5028786;28;20050;-52
2022/04/06 01:02:59;;;;;;;3.97;2.20;;;;;;;5.70;85.47;93276.38;5029728;28;20045;-50
2022/04/06 01:05:26;;;;;;;3.90;2.20;;;;;;;5.65;85.08;93287.69;5030241;28;20045;-53
2022/04/06 01:07:55;;;;;;;4.10;2.55;;;;;;;5.79;85.02;93286.81;5027646;28;20068;-48
2022/04/06 01:10:22;;;;;;;4.05;2.40;;;;;;;5.77;84.56;93276.31;5030232;28;20042;-50
2022/04/06 01:12:49;;;;;;;5.55;3.45;;;;;;;5.59;85.61;93276.47;5030037;28;20237;-52
2022/04/06 01:15:17;;;;;;;6.10;3.87;;;;;;;5.48;86.07;93267.59;5029237;28;21653;-48
2022/04/06 01:17:44;;;;;;;6.95;3.70;;;;;;;5.65;85.62;93270.59;5029804;28;20050;-46
2022/04/06 01:20:12;;;;;;;6.10;3.65;;;;;;;5.77;84.38;93272.81;5029456;28;20087;-50
2022/04/06 01:22:39;;;;;;;6.78;3.60;;;;;;;5.76;84.82;93260.41;5029552;28;20057;-50
2022/04/06 01:25:07;;;;;;;6.85;3.60;;;;;;;5.77;84.30;93261.94;5029265;28;20111;-52
2022/04/06 01:27:34;;;;;;;6.00;3.40;;;;;;;5.80;84.63;93256.47;5028401;28;20516;-49
2022/04/06 01:30:00;;;;;;;7.75;3.60;;;;;;;5.82;84.02;93252.59;5029187;28;20092;-51
2022/04/06 01:32:32;;;;;;;5.18;3.05;;;;;;;5.85;84.28;93251.78;5029842;28;20052;-48
2022/04/06 01:35:00;;;;;;;6.05;3.10;;;;;;;5.90;84.29;93248.63;5028123;28;20045;-49
2022/04/06 01:37:28;;;;;;;4.88;2.90;;;;;;;5.85;84.92;93249.03;5029886;28;20429;-47
2022/04/06 01:39:55;;;;;;;5.57;3.20;;;;;;;5.80;85.33;93245.56;5027777;28;20053;-49
2022/04/06 01:42:22;;;;;;;4.30;2.65;;;;;;;5.91;85.87;93244.72;5029773;28;20049;-49
2022/04/06 01:44:50;;;;;;;6.68;3.40;;;;;;;5.67;85.26;93235.56;5029558;28;20055;-47
2022/04/06 01:47:19;;;;;;;6.40;3.80;;;;;;;5.55;86.22;93243.06;5028863;28;20618;-48
2022/04/06 01:52:32;;;;;;;7.53;4.13;;;;;;;5.58;86.19;93242.25;5032741;28;21806;-57
2022/04/06 01:55:05;;;;;;;8.10;4.45;;;;;;;5.69;85.69;93246.84;5033278;28;20057;-47
2022/04/06 01:57:33;;;;;;;6.70;3.88;;;;;;;5.81;85.28;93240.91;5033445;28;20448;-58
2022/04/06 02:00:01;;;;;;;5.38;3.30;;;;;;;5.87;85.25;93239.28;5032833;28;20045;-46
2022/04/06 02:02:31;;;;;;;6.70;2.78;;;;;;;5.78;85.28;93239.75;5033745;28;20053;-48
2022/04/06 02:04:59;;;;;;;5.27;2.83;;;;;;;5.65;86.07;93232.47;5033173;28;20399;-50
2022/04/06 02:07:26;;;;;;;5.28;3.40;;;;;;;5.65;86.31;93241.41;5033290;28;20615;-53
2022/04/06 02:09:53;;;;;;;5.35;2.92;;;;;;;5.76;86.25;93233.94;5032664;28;20052;-53
2022/04/06 02:12:22;;;;;;;4.90;2.80;;;;;;;5.76;85.78;93233.94;5032065;28;20045;-47
2022/04/06 02:14:49;;;;;;;4.95;2.60;;;;;;;5.76;85.91;93225.00;5033246;28;20049;-48
2022/04/06 02:17:16;;;;;;;3.70;2.27;;;;;;;5.86;85.92;93220.66;5032499;28;20067;-46
2022/04/06 02:19:43;;;;;;;3.60;2.38;;;;;;;5.93;85.58;93217.84;5032392;28;20084;-55
2022/04/06 02:22:11;;;;;;;4.43;2.40;;;;;;;5.92;86.17;93211.63;5032665;28;20050;-48
2022/04/06 02:24:38;;;;;;;3.88;2.08;;;;;;;6.04;85.60;93218.56;5032942;28;20045;-53
2022/04/06 02:27:07;;;;;;;4.85;2.90;;;;;;;5.97;85.22;93208.50;5032692;28;20750;-51
2022/04/06 02:29:35;;;;;;;4.43;2.67;;;;;;;6.00;85.13;93207.69;5033176;28;20046;-58
2022/04/06 02:32:02;;;;;;;4.43;2.65;;;;;;;6.12;84.59;93211.09;5032733;28;20046;-54
2022/04/06 02:34:29;;;;;;;4.47;2.60;;;;;;;6.09;84.35;93211.91;5032879;28;20049;-52
2022/04/06 02:36:56;;;;;;;4.63;2.65;;;;;;;6.08;84.86;93211.13;5031034;28;20041;-47
2022/04/06 02:39:23;;;;;;;4.10;2.70;;;;;;;6.06;84.95;93204.56;5032843;28;20079;-49
2022/04/06 02:41:49;;;;;;;4.13;2.63;;;;;;;6.15;85.03;93204.84;5032575;28;20046;-49
2022/04/06 02:44:16;;;;;;;4.25;2.60;;;;;;;6.16;84.88;93195.50;5030954;28;20054;-49
2022/04/06 02:46:48;;;;;;;7.22;4.43;;;;;;;6.12;84.92;93194.75;5029758;28;20051;-53
2022/04/06 02:49:15;;;;;;;9.25;4.78;;;;;;;6.08;84.81;93191.31;5011202;28;20049;-49
2022/04/06 02:51:42;;;;;;;11.38;5.63;;;;;;;5.88;84.76;93189.13;5012701;28;20294;-52
2022/04/06 02:54:09;;;;;;;7.10;3.70;;;;;;;5.54;86.45;93187.06;5012213;28;20060;-48
2022/04/06 02:56:36;;;;;;;7.93;4.22;;;;;;;5.69;86.39;93184.22;5012348;28;20053;-58
2022/04/06 02:59:03;;;;;;;5.95;3.50;;;;;;;5.62;86.55;93184.28;5012395;28;20076;-48
2022/04/06 03:01:30;;;;;;;6.95;3.40;;;;;;;5.64;86.35;93176.50;5012032;28;20402;-50
2022/04/06 03:03:57;;;;;;;6.07;3.60;;;;;;;5.69;86.07;93171.38;5011142;28;20077;-48
2022/04/06 03:06:24;;;;;;;5.00;3.10;;;;;;;5.66;86.79;93174.16;5014478;28;20048;-54
2022/04/06 03:08:50;;;;;;;5.75;3.30;;;;;;;5.68;86.58;93169.06;5031879;28;20041;-49
2022/04/06 03:11:17;;;;;;;5.47;2.92;;;;;;;5.69;86.91;93168.66;5031356;28;21735;-46
2022/04/06 03:13:44;;;;;;;5.45;3.10;;;;;;;5.84;86.68;93169.31;5031842;28;20253;-47
2022/04/06 03:16:10;;;;;;;7.00;3.38;;;;;;;5.91;86.50;93173.91;5031723;28;20059;-52
2022/04/06 03:18:37;;;;;;;5.77;3.33;;;;;;;5.94;86.06;93167.66;5030321;28;20053;-58
2022/04/06 03:21:04;;;;;;;13.00;5.97;;;;;;;5.95;86.54;93167.28;5031835;28;20056;-46
2022/04/06 03:23:31;;;;;;;8.98;5.10;;;;;;;5.84;86.39;93169.31;5030855;28;20041;-50
2022/04/06 03:25:58;;;;;;;7.88;4.22;;;;;;;5.46;87.83;93165.75;5031472;28;20287;-48
2022/04/06 03:28:24;;;;;;;8.40;4.60;;;;;;;5.50;88.44;93163.78;5031619;28;20041;-48
2022/04/06 03:30:51;;;;;;;7.30;4.27;;;;;;;5.73;87.19;93171.34;5013589;28;20049;-45
2022/04/06 03:33:18;;;;;;;7.72;4.50;;;;;;;5.85;86.75;93170.06;5032097;28;20078;-49
2022/04/06 03:35:45;;;;;;;7.28;4.10;;;;;;;5.81;86.63;93164.66;5031528;28;20099;-47
2022/04/06 03:38:11;;;;;;;6.55;3.97;;;;;;;5.98;86.27;93165.72;5031517;28;20045;-46
2022/04/06 03:40:39;;;;;;;6.70;3.85;;;;;;;5.89;86.44;93162.66;5031346;28;20056;-48
2022/04/06 03:43:06;;;;;;;7.13;4.23;;;;;;;6.02;85.95;93165.66;5031262;28;20041;-46
2022/04/06 03:45:33;;;;;;;16.80;9.52;;;;;;;6.10;85.16;93167.16;5031502;28;20071;-55
2022/04/06 03:48:00;;;;;;;11.35;6.20;;;;;;;6.04;85.39;93161.38;5030884;28;20072;-48
2022/04/06 03:50:27;;;;;;;9.60;6.10;;;;;;;6.05;85.66;93154.72;5030286;28;20048;-47
2022/04/06 03:52:54;;;;;;;11.05;5.82;;;;;;;6.14;85.14;93148.81;5030764;28;20056;-50
2022/04/06 03:55:22;;;;;;;8.83;5.10;;;;;;;6.18;85.11;93139.41;5031578;28;20486;-49
2022/04/06 03:57:49;;;;;;;7.90;4.80;;;;;;;6.11;85.01;93142.22;5029803;28;20060;-47
2022/04/06 04:00:16;;;;;;;10.18;5.40;;;;;;;6.14;85.08;93148.81;5031017;28;20059;-50
2022/04/06 04:02:43;;;;;;;10.88;5.75;;;;;;;6.15;85.27;93136.72;5013301;28;20053;-52
2022/04/06 04:05:10;;;;;;;10.73;5.75;;;;;;;6.22;85.06;93142.09;5030944;28;20041;-53
2022/04/06 04:07:37;;;;;;;8.57;4.67;;;;;;;6.24;85.07;93150.66;5030011;28;20056;-48
2022/04/06 04:10:09;;;;;;;9.20;5.00;;;;;;;6.28;84.86;93148.66;5029022;28;20494;-54
2022/04/06 04:12:38;;;;;;;10.45;5.38;;;;;;;6.17;85.45;93145.25;5031081;28;20049;-51
2022/04/06 04:15:06;;;;;;;10.63;5.65;;;;;;;6.09;85.61;93141.06;5029170;28;20418;-49
2022/04/06 04:17:33;;;;;;;17.45;8.27;;;;;;;6.02;85.90;93138.41;5031144;28;20045;-51
2022/04/06 04:20:00;;;;;;;11.43;6.97;;;;;;;6.12;85.71;93146.50;5030170;28;20071;-48
2022/04/06 04:22:26;;;;;;;12.00;6.60;;;;;;;5.96;86.38;93144.31;5031096;28;20095;-52
2022/04/06 04:24:53;;;;;;;11.70;6.53;;;;;;;5.91;86.90;93141.22;5029958;28;20597;-46
2022/04/06 04:27:20;;;;;;;11.52;6.38;;;;;;;5.98;86.10;93138.47;5030797;28;20053;-49
2022/04/06 04:29:47;;;;;;;11.98;6.40;;;;;;;6.04;86.46;93136.06;5030228;28;20045;-53
2022/04/06 04:32:15;;;;;;;13.20;7.40;;;;;;;6.11;86.01;93133.28;5029983;28;20049;-48
2022/04/06 04:34:42;;;;;;;12.70;7.47;;;;;;;6.16;85.86;93130.88;5030458;28;20044;-58
2022/04/06 04:37:09;;;;;;;15.35;7.97;;;;;;;6.09;85.58;93130.94;5029952;28;20047;-51
2022/04/06 04:39:36;;;;;;;14.40;7.30;;;;;;;6.03;86.22;93129.09;5030656;28;20045;-46
2022/04/06 04:42:04;;;;;;;13.73;7.68;;;;;;;6.16;85.77;93132.84;5028564;28;20052;-47
2022/04/06 04:44:31;;;;;;;16.70;9.23;;;;;;;5.94;86.87;93135.00;5030285;28;20046;-48
2022/04/06 04:46:58;;;;;;;15.75;8.40;;;;;;;5.99;86.54;93127.16;5029337;28;20037;-53
2022/04/06 04:49:26;;;;;;;12.25;7.20;;;;;;;5.98;86.68;93131.06;5030041;28;20106;-49
2022/04/06 04:51:52;;;;;;;14.32;7.95;;;;;;;5.86;87.48;93128.06;5029704;28;20037;-46
2022/04/06 04:54:24;;;;;;;12.63;7.13;;;;;;;6.01;87.07;93129.47;5030107;28;20046;-51
2022/04/06 04:56:56;;;;;;;18.83;10.17;;;;;;;6.12;86.46;93130.16;5029585;28;20053;-49
2022/04/06 04:59:25;;;;;;;14.02;8.02;;;;;;;6.12;86.50;93129.38;5029795;28;20041;-48
2022/04/06 05:01:52;;;;;;;12.95;7.65;;;;;;;6.27;86.13;93130.75;5029025;28;20048;-46
2022/04/06 05:04:19;;;;;;;17.50;9.18;;;;;;;6.35;85.99;93120.53;5030171;28;20525;-50
2022/04/06 05:06:46;;;;;;;20.42;10.57;;;;;;;6.33;85.26;93131.06;5029699;28;20056;-51
2022/04/06 05:09:13;;;;;;;17.83;9.00;;;;;;;6.40;84.99;93137.22;5029293;28;20053;-47
2022/04/06 05:11:40;;;;;;;14.80;7.75;;;;;;;6.48;85.13;93123.50;5029920;28;20046;-51
2022/04/06 05:14:07;;;;;;;13.20;6.75;;;;;;;6.48;84.96;93127.00;5027980;28;20045;-48
2022/04/06 05:16:33;;;;;;;13.27;7.30;;;;;;;6.53;84.91;93129.25;5029778;28;20041;-49
2022/04/06 05:19:01;;;;;;;13.38;7.55;;;;;;;6.47;84.68;93128.19;5027497;28;20055;-49
2022/04/06 05:21:28;;;;;;;10.67;6.10;;;;;;;6.16;85.83;93136.31;5029817;28;20053;-51
2022/04/06 05:23:55;;;;;;;10.35;5.82;;;;;;;6.23;86.01;93127.28;5028705;28;20102;-53
2022/04/06 05:26:21;;;;;;;9.40;5.25;;;;;;;6.02;86.88;93133.75;5027848;28;20142;-49
2022/04/06 05:28:48;;;;;;;9.30;5.35;;;;;;;6.02;87.56;93131.03;5029507;28;20053;-47
2022/04/06 05:31:17;;;;;;;14.98;7.68;;;;;;;6.20;86.63;93130.84;5028877;28;20042;-47
2022/04/06 05:33:44;;;;;;;11.80;6.90;;;;;;;6.35;86.38;93131.44;5029230;28;20059;-48
2022/04/06 05:36:17;;;;;;;11.00;6.30;;;;;;;6.36;85.31;93128.31;5028822;28;20566;-50
2022/04/06 05:38:43;;;;;;;16.55;7.65;;;;;;;6.11;86.81;93128.59;5061694;28;20045;-52
2022/04/06 05:41:10;;;;;;;15.45;6.80;;;;;;;6.09;86.61;93128.22;5011393;28;20058;-50
2022/04/06 05:43:37;;;;;;;16.00;7.00;;;;;;;6.17;87.17;93123.47;5028258;28;20049;-47
2022/04/06 05:46:04;;;;;;;16.80;7.80;;;;;;;6.28;86.76;93126.06;5028727;28;20072;-46
2022/04/06 05:48:30;;;;;;;18.05;7.75;;;;;;;6.39;85.80;93124.00;5029605;28;20045;-48
2022/04/06 05:50:57;;;;;;;13.68;6.70;;;;;;;6.50;85.48;93130.09;5028761;28;20050;-48
2022/04/06 05:53:24;;;;;;;13.25;7.15;;;;;;;6.62;85.01;93128.00;5029386;28;20041;-53
2022/04/06 05:55:52;;;;;;;15.05;9.25;;;;;;;6.32;85.88;93127.59;5028667;28;20046;-49
2022/04/06 05:58:18;;;;;;;11.10;7.10;;;;;;;6.28;86.31;93124.13;5029293;28;20046;-47
2022/04/06 06:00:45;;;;;;;11.23;6.85;;;;;;;6.35;85.85;93120.53;5034095;28;20049;-48
2022/04/06 06:03:12;;;;;;;14.25;6.97;;;;;;;6.65;85.40;93125.22;5038125;28;20057;-52
2022/04/06 06:05:39;;;;;;;14.10;6.95;;;;;;;6.71;84.45;93129.03;5039906;28;20041;-48
2022/04/06 06:08:16;;;;;;;12.48;7.10;;;;;;;6.85;83.88;93119.88;5037746;28;20048;-51
2022/04/06 06:10:43;;;;;;;12.10;7.40;;;;;;;7.00;83.50;93123.19;5029284;28;20406;-52
2022/04/06 06:13:10;;;;;;;14.95;7.13;;;;;;;7.18;82.96;93126.44;5027078;28;20059;-47
2022/04/06 06:15:36;;;;;;;13.30;7.15;;;;;;;7.46;81.76;93123.66;5028952;28;20449;-48
2022/04/06 06:18:03;;;;;;;19.13;7.63;;;;;;;7.47;81.10;93131.44;5025844;28;20051;-50
2022/04/06 06:20:30;;;;;;;19.35;7.90;;;;;;;7.60;81.05;93128.88;5029328;28;20134;-53
2022/04/06 06:22:57;;;;;;;14.37;7.40;;;;;;;7.56;80.59;93133.63;5028339;28;20041;-47
2022/04/06 06:25:24;;;;;;;11.02;7.22;;;;;;;7.70;80.30;93129.91;5028095;28;20180;-47
2022/04/06 06:27:50;;;;;;;11.98;7.38;;;;;;;7.74;80.31;93131.38;5027782;28;20052;-48
2022/04/06 06:30:17;;;;;;;13.95;7.72;;;;;;;7.29;81.94;93131.72;5028085;28;21387;-49
2022/04/06 06:32:45;;;;;;;16.08;7.97;;;;;;;7.52;81.29;93139.13;5028973;28;20058;-49
2022/04/06 06:35:12;;;;;;;12.80;6.60;;;;;;;7.56;80.95;93134.41;5028711;28;20057;-51
2022/04/06 06:37:48;;;;;;;9.98;6.18;;;;;;;7.27;82.24;93138.78;5031388;28;20041;-48
2022/04/06 06:40:17;;;;;;;17.15;6.60;;;;;;;7.47;82.14;93131.44;5032583;28;20054;-49
2022/04/06 06:42:44;;;;;;;9.35;5.95;;;;;;;7.49;81.70;93131.03;5033204;28;20049;-50
2022/04/06 06:45:11;;;;;;;6.78;4.22;;;;;;;7.66;80.75;93127.22;5032169;28;20049;-47
2022/04/06 06:47:41;;;;;;;16.47;5.60;;;;;;;7.94;79.95;93128.69;5032906;28;20053;-52
2022/04/06 06:50:10;;;;;;;15.88;5.28;;;;;;;8.29;78.42;93128.44;5031703;28;20045;-47
2022/04/06 06:52:37;;;;;;;6.32;3.35;;;;;;;8.63;76.38;93128.16;5032717;28;20498;-46
2022/04/06 06:55:09;;;;;;;12.05;3.35;;;;;;;9.03;74.33;93119.13;5032104;28;20764;-51
2022/04/06 06:57:37;;;;;;;4.72;2.30;;;;;;;9.05;73.52;93111.25;5032525;28;20051;-53
2022/04/06 07:00:04;;;;;;;6.20;3.00;;;;;;;9.34;71.97;93112.16;5032103;28;20042;-50
2022/04/06 07:02:31;;;;;;;14.68;3.47;;;;;;;9.23;72.23;93111.63;5032286;28;20045;-55
2022/04/06 07:04:58;;;;;;;11.68;3.60;;;;;;;8.93;73.65;93107.22;5031827;28;20037;-47
2022/04/06 07:07:24;;;;;;;27.85;3.65;;;;;;;8.79;74.48;93114.56;5032054;28;20468;-53
2022/04/06 07:09:54;;;;;;;29.20;3.70;;;;;;;8.89;74.67;93117.47;5032116;28;20103;-47
2022/04/06 07:12:21;;;;;;;10.27;2.80;;;;;;;8.94;74.06;93127.94;5031262;28;20045;-47
2022/04/06 07:14:53;;;;;;;3.15;1.58;;;;;;;8.98;71.68;93114.94;5031845;28;20119;-52
2022/04/06 07:17:20;;;;;;;3.47;1.88;;;;;;;9.11;71.74;93115.81;5032507;28;20037;-49
2022/04/06 07:19:47;;;;;;;3.63;2.20;;;;;;;9.33;71.75;93112.59;5030826;28;20045;-48
2022/04/06 07:22:13;;;;;;;7.88;1.90;;;;;;;9.75;69.02;93116.25;5031579;28;20049;-49
2022/04/06 07:24:40;;;;;;;11.83;2.20;;;;;;;9.66;69.35;93110.63;5032044;28;20045;-54
2022/04/06 07:27:12;;;;;;;12.52;2.45;;;;;;;10.16;68.57;93114.81;5031586;28;20449;-49
2022/04/06 07:29:39;;;;;;;6.53;1.80;;;;;;;10.35;66.14;93112.38;5031500;28;20080;-49
2022/04/06 07:32:06;;;;;;;3.40;1.98;;;;;;;10.00;67.73;93115.63;5031262;28;20053;-49
2022/04/06 07:34:33;;;;;;;7.85;2.75;;;;;;;9.87;69.21;93120.25;5032178;28;20548;-50
2022/04/06 07:36:59;;;;;;;14.17;4.30;;;;;;;10.20;68.11;93117.44;5030875;28;20051;-49
2022/04/06 07:39:29;;;;;;;16.80;3.53;;;;;;;10.58;67.00;93117.63;5031488;28;20041;-46
2022/04/06 07:41:56;;;;;;;5.82;2.40;;;;;;;10.76;65.81;93113.59;5031005;28;20056;-47
2022/04/06 07:44:24;;;;;;;9.52;1.85;;;;;;;12.04;61.61;93107.31;5014128;28;20429;-50
2022/04/06 07:46:51;;;;;;;9.93;2.42;;;;;;;13.18;58.61;93110.69;5031614;28;20118;-54
2022/04/06 07:49:18;;;;;;;6.33;1.63;;;;;;;13.85;54.81;93100.97;5030309;28;20441;-48
2022/04/06 07:51:45;;;;;;;5.95;1.77;;;;;;;15.41;49.99;93098.56;5031838;28;20397;-51
2022/04/06 07:54:12;;;;;;;5.45;1.63;;;;;;;14.82;51.45;93104.41;5030896;28;20054;-51
2022/04/06 07:56:40;;;;;;;5.38;1.77;;;;;;;13.32;54.70;93101.91;5031643;28;20506;-53
2022/04/06 07:59:07;;;;;;;3.22;1.73;;;;;;;14.34;52.29;93093.81;5030801;28;20426;-46
2022/04/06 08:01:34;;;;;;;4.80;1.90;;;;;;;14.12;52.63;93088.44;5030222;28;20060;-47
2022/04/06 08:04:01;;;;;;;4.82;2.03;;;;;;;14.76;51.61;93091.22;5030540;28;20056;-50
2022/04/06 08:06:28;;;;;;;3.78;1.52;;;;;;;13.63;53.24;93098.31;5029982;28;20065;-46
2022/04/06 08:08:55;;;;;;;2.78;1.50;;;;;;;12.92;55.20;93091.56;5030592;28;20049;-51
2022/04/06 08:11:22;;;;;;;2.88;1.50;;;;;;;16.66;46.21;93095.22;5031123;28;20195;-54
2022/04/06 08:13:49;;;;;;;3.00;1.40;;;;;;;20.12;39.11;93082.31;5030046;28;20375;-46
2022/04/06 08:16:16;;;;;;;5.22;2.72;;;;;;;19.70;38.31;93084.59;5030393;28;20049;-46
2022/04/06 08:18:43;;;;;;;11.07;4.57;;;;;;;19.90;38.43;93078.16;5031134;28;20209;-47
2022/04/06 08:21:10;;;;;;;8.55;4.22;;;;;;;20.19;37.89;93079.09;5030167;28;20046;-46
2022/04/06 08:23:37;;;;;;;22.50;12.85;;;;;;;18.95;39.38;93076.13;5031105;28;20055;-54
2022/04/06 08:26:04;;;;;;;13.70;3.97;;;;;;;21.08;35.38;93066.72;5029819;28;20044;-53
2022/04/06 08:28:30;;;;;;;11.77;6.20;;;;;;;21.00;35.53;93073.31;5030798;28;20042;-51
2022/04/06 08:30:57;;;;;;;3.85;1.75;;;;;;;20.75;35.68;93067.44;5028619;28;20057;-48
2022/04/06 08:33:24;;;;;;;4.40;1.88;;;;;;;19.49;38.32;93070.00;5030666;28;20110;-49
2022/04/06 08:35:53;;;;;;;11.32;1.90;;;;;;;19.82;37.39;93065.19;5030368;28;20047;-48
2022/04/06 08:38:20;;;;;;;7.70;3.13;;;;;;;20.56;35.69;93061.50;5030439;28;20051;-47
2022/04/06 08:40:48;;;;;;;3.28;1.13;;;;;;;20.23;36.32;93065.69;5030723;28;20071;-50
2022/04/06 08:43:16;;;;;;;3.30;1.27;;;;;;;22.75;32.74;93059.91;5029964;28;20049;-52
2022/04/06 08:45:43;;;;;;;2.85;1.15;;;;;;;22.49;31.94;93066.63;5030462;28;20114;-53
2022/04/06 08:48:11;;;;;;;2.67;1.00;;;;;;;22.42;32.62;93067.19;5029609;28;20046;-49
2022/04/06 08:50:39;;;;;;;3.97;1.00;;;;;;;19.20;36.85;93071.03;5028957;28;20056;-52
2022/04/06 08:53:07;;;;;;;2.28;1.08;;;;;;;17.97;40.32;93060.06;5029892;28;20052;-48
2022/04/06 08:55:34;;;;;;;2.65;0.85;;;;;;;18.43;39.53;93067.69;5030509;28;20060;-50
2022/04/06 08:58:03;;;;;;;3.83;1.40;;;;;;;17.31;41.60;93073.19;5029659;28;20041;-49
2022/04/06 09:00:30;;;;;;;2.60;1.15;;;;;;;17.35;41.63;93068.19;5028090;28;20045;-46
2022/04/06 09:02:57;;;;;;;2.23;0.97;;;;;;;16.03;44.22;93064.75;5029449;28;20050;-57
2022/04/06 09:05:28;;;;;;;2.97;0.90;;;;;;;16.76;43.38;93068.16;5030255;28;20071;-55
2022/04/06 09:07:55;;;;;;;4.05;0.95;;;;;;;16.38;43.87;93061.44;5029522;28;20045;-49
2022/04/06 09:10:35;;;;;;;6.63;2.17;;;;;;;15.62;45.01;93052.56;5029684;28;20525;-49
2022/04/06 09:13:15;;;;;;;3.08;0.88;;;;;;;15.27;46.64;93056.56;5027900;28;20041;-50
2022/04/06 09:15:43;;;;;;;4.13;1.20;;;;;;;15.70;46.26;93051.72;5030309;28;20049;-53
2022/04/06 09:18:10;;;;;;;6.20;1.20;;;;;;;16.46;44.42;93053.50;5029309;28;20056;-53
2022/04/06 09:20:37;;;;;;;6.03;1.40;;;;;;;16.12;44.63;93041.81;5030131;28;20053;-51
2022/04/06 09:23:05;;;;;;;3.45;0.80;;;;;;;16.56;44.09;93055.00;5029285;28;20053;-48
2022/04/06 09:25:37;;;;;;;2.45;0.70;;;;;;;18.39;39.58;93044.91;5030165;28;20041;-49
2022/04/06 09:28:17;;;;;;;1.60;0.50;;;;;;;18.57;38.78;93043.84;5029359;28;20049;-54
2022/04/06 09:30:45;;;;;;;2.10;0.60;;;;;;;18.26;39.74;93041.72;5029875;28;20672;-52
2022/04/06 09:33:19;;;;;;;1.85;0.70;;;;;;;19.85;36.69;93034.31;5029196;28;20045;-53
2022/04/06 09:35:46;;;;;;;4.97;0.70;;;;;;;17.46;40.01;93036.34;5030121;28;20402;-50
2022/04/06 09:38:20;;;;;;;2.38;0.90;;;;;;;17.18;41.93;93033.88;5028771;28;20057;-49
2022/04/06 09:40:47;;;;;;;1.80;0.80;;;;;;;19.19;37.73;93030.56;5029690;28;20061;-51
2022/04/06 09:43:29;;;;;;;2.08;0.80;;;;;;;17.15;40.57;93034.88;5029109;28;20054;-50
2022/04/06 09:49:03;;;;;;;1.58;0.60;;;;;;;18.59;40.25;93021.13;5010089;28;20041;-53
2022/04/06 09:51:30;;;;;;;1.95;0.73;;;;;;;18.65;38.19;93038.59;5009640;28;20128;-53
2022/04/06 09:54:00;;;;;;;6.13;0.70;;;;;;;16.71;41.88;93030.81;5009215;28;20407;-53
2022/04/06 09:56:28;;;;;;;4.40;0.60;;;;;;;18.38;39.37;93015.59;5009479;28;20129;-50
2022/04/06 09:58:57;;;;;;;14.20;4.75;;;;;;;18.03;38.90;93021.22;5008653;28;20037;-50
2022/04/06 10:01:33;;;;;;;1.80;0.65;;;;;;;17.68;40.58;93020.00;5009304;28;20053;-50
2022/04/06 10:04:09;;;;;;;8.00;0.70;;;;;;;17.92;39.68;93011.53;5009222;28;20057;-47
2022/04/06 10:06:38;;;;;;;1.60;0.60;;;;;;;18.21;38.97;93007.09;5014362;28;20038;-50
2022/04/06 10:09:07;;;;;;;1.88;0.70;;;;;;;17.14;41.62;93014.69;5028374;28;20059;-49
2022/04/06 10:11:35;;;;;;;3.42;0.60;;;;;;;17.96;39.79;93003.00;5030251;28;20045;-50
2022/04/06 10:14:04;;;;;;;3.45;0.70;;;;;;;20.40;35.67;92990.50;5032806;28;20049;-59
2022/04/06 10:16:34;;;;;;;3.90;0.80;;;;;;;19.64;36.16;92986.38;5032040;28;20461;-53
2022/04/06 10:19:03;;;;;;;1.60;0.60;;;;;;;17.49;40.69;92986.22;5032555;28;20050;-58
2022/04/06 10:21:48;;;;;;;1.98;1.00;;;;;;;17.20;42.55;92981.50;5032110;28;20057;-49
2022/04/06 10:24:34;;;;;;;2.05;0.80;;;;;;;20.43;37.34;92980.41;5032027;28;20116;-49
2022/04/06 10:27:04;;;;;;;4.20;0.90;;;;;;;21.42;33.78;92974.66;5032779;28;20052;-54
2022/04/06 10:30:06;;;;;;;1.58;0.70;;;;;;;22.02;33.35;92970.75;5033270;28;20071;-53
2022/04/06 10:32:34;;;;;;;4.80;0.90;;;;;;;21.84;33.53;92969.28;5032016;28;20693;-47
2022/04/06 10:35:34;;;;;;;2.80;0.63;;;;;;;21.86;33.20;92955.56;5032481;28;20041;-52
2022/04/06 10:38:04;;;;;;;2.10;0.60;;;;;;;21.76;33.14;92946.69;5032350;28;20052;-52
2022/04/06 10:40:42;;;;;;;1.80;0.70;;;;;;;19.88;35.79;92944.25;5033058;28;20153;-49
2022/04/06 10:43:34;;;;;;;2.38;0.60;;;;;;;18.80;38.03;92932.94;5030739;28;20038;-51
2022/04/06 10:46:01;;;;;;;4.60;0.70;;;;;;;16.89;41.92;92946.75;5032240;28;20053;-52
2022/04/06 10:48:28;;;;;;;2.10;0.70;;;;;;;17.39;41.23;92948.00;5032675;28;20049;-47
2022/04/06 10:51:33;;;;;;;2.20;0.85;;;;;;;16.17;43.68;92947.78;5030703;28;20049;-48
2022/04/06 10:54:21;;;;;;;7.57;0.90;;;;;;;17.67;41.33;92934.50;5031974;28;20098;-51
2022/04/06 10:56:48;;;;;;;5.25;1.52;;;;;;;18.05;39.59;92939.00;5029096;28;20048;-47
2022/04/06 10:59:23;;;;;;;9.17;2.13;;;;;;;18.40;39.08;92929.75;5031447;28;20053;-53
2022/04/06 11:02:17;;;;;;;3.28;0.93;;;;;;;19.06;37.30;92927.31;5032058;28;20379;-48
2022/04/06 11:04:45;;;;;;;2.53;0.88;;;;;;;19.91;35.86;92914.63;5032625;28;20041;-49
2022/04/06 11:07:15;;;;;;;3.20;1.00;;;;;;;18.13;39.55;92914.34;5031547;28;20053;-48
2022/04/06 11:12:30;;;;;;;6.60;1.07;;;;;;;16.01;43.97;92917.03;5030801;28;20088;-53
2022/04/06 11:15:00;;;;;;;3.75;0.98;;;;;;;16.90;41.94;92919.81;5031935;28;20046;-51
2022/04/06 11:17:38;;;;;;;3.97;0.90;;;;;;;17.30;41.79;92918.38;5031910;28;20045;-53
2022/04/06 11:20:11;;;;;;;2.80;1.00;;;;;;;16.86;42.84;92920.03;5031489;28;20056;-55
2022/04/06 11:22:49;;;;;;;3.70;1.00;;;;;;;15.96;44.80;92918.47;5031458;28;20050;-47
2022/04/06 11:25:17;;;;;;;5.23;2.10;;;;;;;15.41;46.42;92916.84;5031376;28;20052;-52
2022/04/06 11:27:45;;;;;;;3.65;1.80;;;;;;;15.58;46.30;92912.44;5031992;28;20045;-47
2022/04/06 11:30:26;;;;;;;3.75;1.20;;;;;;;15.25;46.67;92908.97;5031187;28;20050;-47
2022/04/06 11:32:55;;;;;;;2.63;1.08;;;;;;;14.82;48.28;92909.06;5031210;28;20045;-49
2022/04/06 11:35:28;;;;;;;3.63;1.38;;;;;;;14.84;48.08;92906.59;5031409;28;20110;-51
2022/04/06 11:37:55;;;;;;;7.20;3.30;;;;;;;14.69;48.64;92903.75;5031399;28;20201;-52
2022/04/06 11:40:25;;;;;;;8.32;3.85;;;;;;;15.10;47.68;92903.41;5031385;28;20048;-49
2022/04/06 11:42:54;;;;;;;17.75;3.70;;;;;;;14.90;48.06;92901.97;5029775;28;20494;-48
2022/04/06 11:45:57;;;;;;;8.02;3.45;;;;;;;15.33;47.33;92897.13;5031103;28;20038;-49
2022/04/06 11:48:24;;;;;;;6.43;2.40;;;;;;;15.15;47.50;92894.44;5026741;28;20662;-53
2022/04/06 11:50:51;;;;;;;3.63;1.50;;;;;;;15.00;47.98;92899.16;5030234;28;20056;-51
2022/04/06 11:53:18;;;;;;;4.97;1.13;;;;;;;15.05;47.61;92887.44;5030056;28;20706;-52
2022/04/06 11:55:49;;;;;;;6.13;2.20;;;;;;;14.84;48.03;92889.25;5031357;28;20528;-47